createdAt,value
2022-10-10T00:04:59.114Z,1.80
2022-10-10T00:09:59.036Z,1.70
2022-10-10T00:14:59.044Z,2.00
2022-10-10T00:19:58.985Z,1.60
2022-10-10T00:24:58.946Z,2.00
2022-10-10T00:29:58.842Z,2.30
2022-10-10T00:34:58.813Z,2.50
2022-10-10T00:39:58.732Z,2.00
2022-10-10T00:44:58.679Z,2.10
2022-10-10T00:49:58.602Z,1.80
2022-10-10T00:54:58.559Z,2.00
2022-10-10T00:59:58.477Z,2.10
2022-10-10T01:04:58.553Z,1.60
2022-10-10T01:09:58.478Z,2.20
2022-10-10T01:14:58.426Z,2.00
2022-10-10T01:19:58.339Z,2.20
2022-10-10T01:24:58.222Z,2.10
2022-10-10T01:29:58.250Z,2.00
2022-10-10T01:34:58.212Z,2.30
2022-10-10T01:39:58.131Z,2.00
2022-10-10T01:44:58.028Z,2.00
2022-10-10T01:49:57.981Z,2.50
2022-10-10T01:54:57.890Z,2.60
2022-10-10T01:59:57.850Z,2.30
2022-10-10T02:04:57.770Z,2.20
2022-10-10T02:09:57.778Z,2.50
2022-10-10T02:14:57.724Z,2.50
2022-10-10T02:19:57.667Z,2.40
2022-10-10T02:24:57.617Z,2.70
2022-10-10T02:29:57.510Z,2.50
2022-10-10T02:34:57.435Z,2.60
2022-10-10T02:39:57.465Z,2.40
2022-10-10T02:44:57.511Z,2.50
2022-10-10T02:49:57.291Z,2.80
2022-10-10T02:54:57.202Z,2.30
2022-10-10T02:59:57.232Z,2.60
2022-10-10T03:04:57.122Z,2.60
2022-10-10T03:09:57.076Z,2.40
2022-10-10T03:14:57.027Z,2.80
2022-10-10T03:19:56.980Z,2.60
2022-10-10T03:24:57.002Z,3.30
2022-10-10T03:29:56.876Z,2.80
2022-10-10T03:35:00.184Z,2.80
2022-10-10T03:39:56.739Z,2.70
2022-10-10T03:44:56.735Z,2.60
2022-10-10T03:49:56.669Z,2.70
2022-10-10T03:54:56.615Z,3.50
2022-10-10T03:59:56.531Z,3.50
2022-10-10T04:04:56.459Z,2.70
2022-10-10T04:09:56.414Z,3.40
2022-10-10T04:14:56.367Z,3.00
2022-10-10T04:19:56.303Z,3.20
2022-10-10T04:24:56.234Z,3.20
2022-10-10T04:29:56.208Z,3.40
2022-10-10T04:34:56.162Z,4.00
2022-10-10T04:39:56.071Z,3.20
2022-10-10T04:44:56.020Z,3.20
2022-10-10T04:49:57.058Z,4.10
2022-10-10T04:54:55.973Z,3.50
2022-10-10T04:59:55.942Z,3.80
2022-10-10T05:04:55.828Z,3.70
2022-10-10T05:09:55.759Z,3.90
2022-10-10T05:14:55.742Z,3.40
2022-10-10T05:19:55.616Z,3.40
2022-10-10T05:24:55.604Z,4.00
2022-10-10T05:29:55.550Z,4.30
2022-10-10T05:34:55.490Z,4.50
2022-10-10T05:39:55.473Z,4.40
2022-10-10T05:44:55.479Z,4.10
2022-10-10T05:49:55.317Z,4.00
2022-10-10T05:54:55.247Z,4.40
2022-10-10T05:59:55.316Z,4.20
2022-10-10T06:04:55.155Z,4.20
2022-10-10T06:09:55.050Z,4.80
2022-10-10T06:14:55.067Z,4.90
2022-10-10T06:19:55.002Z,4.20
2022-10-10T06:24:54.877Z,4.10
2022-10-10T06:29:54.836Z,4.50
2022-10-10T06:34:54.798Z,4.30
2022-10-10T06:39:54.796Z,4.40
2022-10-10T06:44:54.728Z,4.60
2022-10-10T06:49:54.655Z,4.40
2022-10-10T06:54:54.630Z,5.10
2022-10-10T06:59:54.555Z,5.80
2022-10-10T07:04:55.667Z,4.70
2022-10-10T07:09:54.571Z,4.80
2022-10-10T07:14:54.387Z,4.40
2022-10-10T07:19:54.397Z,4.10
2022-10-10T07:24:54.250Z,5.20
2022-10-10T07:29:54.256Z,5.00
2022-10-10T07:34:54.129Z,4.50
2022-10-10T07:39:54.167Z,6.00
2022-10-10T07:44:54.034Z,6.70
2022-10-10T07:49:53.974Z,13.30
2022-10-10T07:54:53.910Z,4.30
2022-10-10T07:59:53.900Z,5.00
2022-10-10T08:04:53.791Z,9.30
2022-10-10T08:09:53.793Z,7.80
2022-10-10T08:14:53.731Z,8.50
2022-10-10T08:19:53.660Z,6.70
2022-10-10T08:24:56.968Z,4.20
2022-10-10T08:29:53.537Z,4.20
2022-10-10T08:34:53.531Z,4.00
2022-10-10T08:39:53.403Z,3.30
2022-10-10T08:44:53.350Z,4.50
2022-10-10T08:49:53.281Z,5.40
2022-10-10T08:54:58.189Z,4.10
2022-10-10T09:04:53.110Z,3.60
2022-10-10T09:09:53.069Z,3.20
2022-10-10T09:14:53.015Z,3.40
2022-10-10T09:19:53.045Z,3.50
2022-10-10T09:24:52.997Z,3.70
2022-10-10T09:29:52.926Z,3.10
2022-10-10T09:34:53.362Z,3.50
2022-10-10T09:39:52.801Z,3.80
2022-10-10T09:44:52.746Z,3.50
2022-10-10T09:49:52.709Z,3.60
2022-10-10T09:54:52.623Z,4.20
2022-10-10T10:00:04.491Z,4.00
2022-10-10T10:04:52.467Z,3.60
2022-10-10T10:09:52.391Z,3.70
2022-10-10T10:14:52.345Z,3.10
2022-10-10T10:19:52.299Z,3.10
2022-10-10T10:24:52.267Z,3.10
2022-10-10T10:29:52.177Z,3.00
2022-10-10T10:34:52.151Z,2.60
2022-10-10T10:39:52.088Z,3.20
2022-10-10T10:44:52.146Z,3.40
2022-10-10T10:49:52.061Z,3.70
2022-10-10T10:54:52.020Z,2.70
2022-10-10T11:00:26.321Z,3.10
2022-10-10T11:05:20.603Z,2.90
2022-10-10T11:09:52.728Z,3.20
2022-10-10T11:14:52.814Z,2.90
2022-10-10T11:19:51.719Z,2.90
2022-10-10T11:24:51.598Z,3.30
2022-10-10T11:29:51.534Z,2.70
2022-10-10T11:34:51.495Z,3.30
2022-10-10T11:39:51.419Z,2.60
2022-10-10T11:44:51.386Z,3.30
2022-10-10T11:49:51.324Z,3.00
2022-10-10T11:54:51.274Z,2.70
2022-10-10T11:59:51.215Z,3.20
2022-10-10T12:04:51.279Z,3.50
2022-10-10T12:09:51.203Z,4.20
2022-10-10T12:14:52.084Z,3.40
2022-10-10T12:19:51.097Z,3.60
2022-10-10T12:24:51.042Z,3.40
2022-10-10T12:29:51.521Z,3.20
2022-10-10T12:34:50.961Z,3.30
2022-10-10T12:39:50.793Z,4.10
2022-10-10T12:44:50.739Z,4.40
2022-10-10T12:49:50.688Z,3.70
2022-10-10T12:54:50.634Z,3.90
2022-10-10T12:59:50.594Z,3.50
2022-10-10T13:04:50.514Z,3.30
2022-10-10T13:09:50.466Z,4.40
2022-10-10T13:14:50.442Z,4.40
2022-10-10T13:19:50.481Z,3.70
2022-10-10T13:24:50.425Z,3.50
2022-10-10T13:29:50.357Z,4.20
2022-10-10T13:34:51.199Z,4.30
2022-10-10T13:39:50.143Z,3.90
2022-10-10T13:44:50.160Z,3.60
2022-10-10T13:49:50.136Z,3.60
2022-10-10T13:54:50.034Z,3.80
2022-10-10T13:59:49.991Z,4.60
2022-10-10T14:04:49.863Z,3.30
2022-10-10T14:09:53.370Z,3.30
2022-10-10T14:14:49.761Z,3.50
2022-10-10T14:19:49.691Z,3.70
2022-10-10T14:24:49.644Z,3.20
2022-10-10T14:29:49.587Z,3.50
2022-10-10T14:34:49.524Z,3.60
2022-10-10T14:39:49.484Z,3.10
2022-10-10T14:44:49.413Z,3.50
2022-10-10T14:49:50.408Z,3.50
2022-10-10T14:54:49.425Z,3.50
2022-10-10T14:59:50.362Z,4.10
2022-10-10T15:04:49.296Z,3.50
2022-10-10T15:10:27.464Z,3.70
2022-10-10T15:14:50.117Z,3.60
2022-10-10T15:19:49.057Z,3.80
2022-10-10T15:24:48.980Z,3.20
2022-10-10T15:29:49.012Z,3.20
2022-10-10T15:34:48.959Z,4.00
2022-10-10T15:39:48.781Z,3.20
2022-10-10T15:44:48.770Z,3.60
2022-10-10T15:49:48.677Z,3.60
2022-10-10T15:54:48.639Z,3.70
2022-10-10T15:59:57.433Z,3.40
2022-10-10T16:04:48.509Z,4.00
2022-10-10T16:09:48.479Z,3.20
2022-10-10T16:14:48.434Z,3.40
2022-10-10T16:19:48.376Z,3.20
2022-10-10T16:25:10.361Z,3.70
2022-10-10T16:29:49.265Z,3.30
2022-10-10T16:34:48.299Z,3.80
2022-10-10T16:39:48.280Z,3.50
2022-10-10T16:44:48.212Z,4.10
2022-10-10T16:49:48.076Z,4.20
2022-10-10T16:54:51.971Z,4.00
2022-10-10T16:59:48.040Z,4.70
2022-10-10T17:04:47.974Z,4.50
2022-10-10T17:09:47.913Z,5.30
2022-10-10T17:14:47.845Z,5.50
2022-10-10T17:19:47.789Z,8.00
2022-10-10T17:24:47.691Z,8.10
2022-10-10T17:29:47.572Z,6.70
2022-10-10T17:34:47.521Z,7.60
2022-10-10T17:39:47.473Z,8.10
2022-10-10T17:44:52.481Z,11.20
2022-10-10T17:49:48.365Z,10.70
2022-10-10T17:54:47.314Z,10.40
2022-10-10T17:59:47.326Z,7.80
2022-10-10T18:04:47.271Z,3.50
2022-10-10T18:09:47.185Z,2.00
2022-10-10T18:14:47.162Z,2.10
2022-10-10T18:19:47.009Z,2.20
2022-10-10T18:24:48.010Z,2.10
2022-10-10T18:29:47.034Z,2.00
2022-10-10T18:34:46.979Z,2.90
2022-10-10T18:39:46.803Z,3.10
2022-10-10T18:44:46.811Z,2.60
2022-10-10T18:49:46.715Z,2.40
2022-10-10T18:54:46.671Z,3.10
2022-10-10T18:59:46.655Z,4.00
2022-10-10T19:04:46.679Z,3.10
2022-10-10T19:09:46.935Z,3.10
2022-10-10T19:14:46.740Z,3.30
2022-10-10T19:19:46.481Z,3.00
2022-10-10T19:24:46.401Z,4.10
2022-10-10T19:29:46.344Z,3.30
2022-10-10T19:34:46.223Z,3.40
2022-10-10T19:39:46.170Z,3.10
2022-10-10T19:44:46.182Z,3.80
2022-10-10T19:49:46.064Z,3.80
2022-10-10T19:54:46.040Z,3.30
2022-10-10T19:59:46.089Z,3.60
2022-10-10T20:04:46.038Z,3.60
2022-10-10T20:09:45.972Z,3.90
2022-10-10T20:14:45.868Z,3.30
2022-10-10T20:19:46.881Z,3.30
2022-10-10T20:24:45.671Z,4.20
2022-10-10T20:29:45.597Z,3.60
2022-10-10T20:34:45.559Z,4.10
2022-10-10T20:39:45.487Z,3.40
2022-10-10T20:44:45.520Z,4.10
2022-10-10T20:49:45.384Z,3.50
2022-10-10T20:54:45.316Z,3.80
2022-10-10T20:59:45.244Z,4.10
2022-10-10T21:04:45.304Z,3.70
2022-10-10T21:09:45.237Z,3.40
2022-10-10T21:14:45.181Z,3.70
2022-10-10T21:19:45.127Z,3.80
2022-10-10T21:24:45.166Z,3.40
2022-10-10T21:29:45.112Z,3.60
2022-10-10T21:34:45.964Z,4.50
2022-10-10T21:39:44.834Z,3.40
2022-10-10T21:44:44.775Z,3.40
2022-10-10T21:49:44.710Z,3.80
2022-10-10T21:54:44.676Z,3.50
2022-10-10T21:59:54.440Z,4.40
2022-10-10T22:04:44.568Z,4.10
2022-10-10T22:09:44.497Z,4.70
2022-10-10T22:14:44.531Z,5.10
2022-10-10T22:19:44.455Z,4.90
2022-10-10T22:24:44.418Z,5.40
2022-10-10T22:29:44.354Z,3.90
2022-10-10T22:34:44.288Z,4.00
2022-10-10T22:39:44.197Z,4.70
2022-10-10T22:44:44.119Z,3.60
2022-10-10T22:49:44.028Z,4.10
2022-10-10T22:54:43.996Z,3.90
2022-10-10T22:59:43.940Z,4.40
2022-10-10T23:04:43.907Z,3.70
2022-10-10T23:09:43.829Z,3.50
2022-10-10T23:14:43.768Z,3.80
2022-10-10T23:19:43.736Z,3.80
2022-10-10T23:24:43.667Z,3.40
2022-10-10T23:29:43.636Z,3.40
2022-10-10T23:34:43.561Z,4.10
2022-10-10T23:39:43.694Z,3.20
2022-10-10T23:44:43.634Z,4.60
2022-10-10T23:49:43.589Z,3.70
2022-10-10T23:54:43.412Z,3.40
2022-10-10T23:59:43.352Z,3.50
